createdAt,value
2018-11-28T00:01:42.904Z,94550.76
2018-11-28T00:04:12.185Z,94556.48
2018-11-28T00:06:41.436Z,94559.09
2018-11-28T00:09:10.716Z,94560.28
2018-11-28T00:11:40.298Z,94563.45
2018-11-28T00:14:09.673Z,94568.03
2018-11-28T00:16:39.119Z,94569.59
2018-11-28T00:19:08.736Z,94565.41
2018-11-28T00:21:38.132Z,94564.95
2018-11-28T00:24:07.145Z,94568.44
2018-11-28T00:26:36.473Z,94569.05
2018-11-28T00:29:05.977Z,94566.49
2018-11-28T00:31:35.125Z,94569.23
2018-11-28T00:34:04.516Z,94570.05
2018-11-28T00:36:34.026Z,94581.62
2018-11-28T00:39:03.805Z,94583.50
2018-11-28T00:41:33.141Z,94580.76
2018-11-28T00:44:02.553Z,94581.17
2018-11-28T00:46:31.902Z,94587.75
2018-11-28T00:49:01.366Z,94590.16
2018-11-28T00:51:30.661Z,94594.27
2018-11-28T00:54:00.024Z,94603.61
2018-11-28T00:56:29.404Z,94596.67
2018-11-28T00:58:58.942Z,94599.25
2018-11-28T01:01:28.313Z,94601.67
2018-11-28T01:03:57.779Z,94606.67
2018-11-28T01:06:27.075Z,94610.15
2018-11-28T01:08:56.469Z,94608.30
2018-11-28T01:11:25.843Z,94607.75
2018-11-28T01:13:55.218Z,94614.19
2018-11-28T01:16:24.522Z,94613.67
2018-11-28T01:18:54.233Z,94618.28
2018-11-28T01:21:23.679Z,94620.77
2018-11-28T01:23:53.026Z,94620.30
2018-11-28T01:26:22.226Z,94623.92
2018-11-28T01:28:51.594Z,94623.26
2018-11-28T01:31:20.917Z,94622.98
2018-11-28T01:33:50.152Z,94626.48
2018-11-28T01:36:19.456Z,94627.83
2018-11-28T01:38:48.910Z,94628.00
2018-11-28T01:41:18.261Z,94623.91
2018-11-28T01:43:47.635Z,94617.27
2018-11-28T01:46:17.890Z,94623.61
2018-11-28T01:48:47.246Z,94622.88
2018-11-28T01:51:16.547Z,94630.66
2018-11-28T01:53:46.001Z,94630.11
2018-11-28T01:56:15.335Z,94631.95
2018-11-28T01:58:44.620Z,94637.30
2018-11-28T02:01:13.913Z,94639.38
2018-11-28T02:03:43.217Z,94638.70
2018-11-28T02:06:12.467Z,94635.44
2018-11-28T02:08:41.893Z,94642.95
2018-11-28T02:11:11.170Z,94637.98
2018-11-28T02:13:40.425Z,94638.44
2018-11-28T02:16:09.755Z,94636.48
2018-11-28T02:18:39.734Z,94639.98
2018-11-28T02:21:09.252Z,94637.42
2018-11-28T02:23:38.787Z,94635.70
2018-11-28T02:26:08.437Z,94641.61
2018-11-28T02:28:37.891Z,94645.43
2018-11-28T02:31:07.623Z,94645.70
2018-11-28T02:33:37.204Z,94651.59
2018-11-28T02:36:06.655Z,94655.61
2018-11-28T02:38:36.075Z,94653.16
2018-11-28T02:41:05.477Z,94659.31
2018-11-28T02:43:34.931Z,94658.05
2018-11-28T02:46:27.245Z,94654.48
2018-11-28T02:48:56.741Z,94661.17
2018-11-28T02:51:26.110Z,94658.91
2018-11-28T02:53:55.736Z,94667.48
2018-11-28T02:56:25.185Z,94670.45
2018-11-28T02:58:54.661Z,94669.64
2018-11-28T03:01:23.997Z,94669.62
2018-11-28T03:03:53.271Z,94676.45
2018-11-28T03:06:22.589Z,94680.87
2018-11-28T03:08:51.914Z,94685.70
2018-11-28T03:11:21.128Z,94687.45
2018-11-28T03:13:50.530Z,94688.80
2018-11-28T03:16:19.932Z,94689.99
2018-11-28T03:18:49.309Z,94691.01
2018-11-28T03:21:19.263Z,94696.70
2018-11-28T03:23:48.523Z,94696.02
2018-11-28T03:26:17.947Z,94694.49
2018-11-28T03:28:47.221Z,94706.77
2018-11-28T03:31:16.490Z,94710.45
2018-11-28T03:33:46.429Z,94716.17
2018-11-28T03:36:15.774Z,94711.55
2018-11-28T03:38:44.968Z,94710.55
2018-11-28T03:41:14.402Z,94717.58
2018-11-28T03:43:43.876Z,94711.16
2018-11-28T03:46:13.349Z,94716.35
2018-11-28T03:48:42.616Z,94716.82
2018-11-28T03:51:11.950Z,94721.67
2018-11-28T03:53:41.224Z,94721.92
2018-11-28T03:56:11.065Z,94719.46
2018-11-28T03:58:40.480Z,94721.23
2018-11-28T04:01:09.736Z,94723.02
2018-11-28T04:03:39.085Z,94702.69
2018-11-28T04:06:08.245Z,94733.21
2018-11-28T04:08:37.871Z,94742.45
2018-11-28T04:11:07.200Z,94741.34
2018-11-28T04:13:36.575Z,94747.80
2018-11-28T04:16:06.769Z,94743.98
2018-11-28T04:18:36.277Z,94745.22
2018-11-28T04:21:05.695Z,94743.55
2018-11-28T04:23:35.248Z,94747.28
2018-11-28T04:26:04.456Z,94745.42
2018-11-28T04:28:33.766Z,94745.08
2018-11-28T04:31:03.140Z,94743.22
2018-11-28T04:33:32.462Z,94751.53
2018-11-28T04:36:01.780Z,94747.03
2018-11-28T04:38:31.227Z,94741.34
2018-11-28T04:41:00.621Z,94751.78
2018-11-28T04:43:30.081Z,94758.00
2018-11-28T04:45:59.422Z,94749.74
2018-11-28T04:48:28.879Z,94754.92
2018-11-28T04:50:58.085Z,94761.16
2018-11-28T04:53:27.338Z,94766.69
2018-11-28T04:55:56.832Z,94764.56
2018-11-28T04:58:26.362Z,94766.43
2018-11-28T05:00:55.812Z,94773.94
2018-11-28T05:03:28.079Z,94775.59
2018-11-28T05:05:57.486Z,94781.06
2018-11-28T05:08:26.983Z,94782.80
2018-11-28T05:10:56.536Z,94780.69
2018-11-28T05:13:25.986Z,94780.98
2018-11-28T05:15:55.351Z,94783.36
2018-11-28T05:18:24.759Z,94779.50
2018-11-28T05:20:53.761Z,94778.59
2018-11-28T05:23:23.165Z,94784.80
2018-11-28T05:25:52.507Z,94790.76
2018-11-28T05:28:21.850Z,94789.88
2018-11-28T05:30:51.358Z,94790.91
2018-11-28T05:33:21.233Z,94793.80
2018-11-28T05:35:50.604Z,94792.43
2018-11-28T05:38:20.040Z,94788.92
2018-11-28T05:40:49.488Z,94798.52
2018-11-28T05:43:18.753Z,94805.22
2018-11-28T05:45:48.620Z,94802.21
2018-11-28T05:48:18.097Z,94803.27
2018-11-28T05:50:47.569Z,94800.47
2018-11-28T05:53:17.204Z,94806.83
2018-11-28T05:55:46.598Z,94811.06
2018-11-28T05:58:16.126Z,94812.77
2018-11-28T06:00:45.652Z,94812.86
2018-11-28T06:03:15.024Z,94820.71
2018-11-28T06:05:44.535Z,94820.03
2018-11-28T06:08:14.025Z,94825.47
2018-11-28T06:10:43.413Z,94819.56
2018-11-28T06:13:12.735Z,94818.57
2018-11-28T06:15:41.972Z,94822.17
2018-11-28T06:18:11.346Z,94820.17
2018-11-28T06:20:40.445Z,94829.57
2018-11-28T06:23:09.681Z,94834.30
2018-11-28T06:25:39.021Z,94836.94
2018-11-28T06:28:08.511Z,94837.06
2018-11-28T06:30:37.845Z,94834.92
2018-11-28T06:33:07.219Z,94836.01
2018-11-28T06:35:36.391Z,94843.64
2018-11-28T06:38:05.876Z,94848.48
2018-11-28T06:40:35.101Z,94852.25
2018-11-28T06:43:04.505Z,94854.45
2018-11-28T06:45:33.819Z,94863.34
2018-11-28T06:48:03.410Z,94864.06
2018-11-28T06:50:32.794Z,94863.45
2018-11-28T06:53:02.042Z,94870.53
2018-11-28T06:55:31.383Z,94874.72
2018-11-28T06:58:00.845Z,94873.76
2018-11-28T07:00:30.187Z,94873.31
2018-11-28T07:02:59.509Z,94880.67
2018-11-28T07:05:28.729Z,94886.58
2018-11-28T07:07:58.820Z,94883.10
2018-11-28T07:10:28.279Z,94881.30
2018-11-28T07:12:57.808Z,94889.34
2018-11-28T07:15:27.201Z,94891.42
2018-11-28T07:17:56.688Z,94898.59
2018-11-28T07:20:26.070Z,94901.56
2018-11-28T07:22:55.383Z,94905.62
2018-11-28T07:25:25.370Z,94906.02
2018-11-28T07:27:54.924Z,94904.64
2018-11-28T07:30:24.728Z,94903.60
2018-11-28T07:32:56.362Z,94906.93
2018-11-28T07:35:25.760Z,94904.01
2018-11-28T07:37:55.226Z,94909.59
2018-11-28T07:40:26.528Z,94918.62
2018-11-28T07:43:04.793Z,94916.33
2018-11-28T07:45:34.256Z,94920.92
2018-11-28T07:48:03.730Z,94921.87
2018-11-28T07:50:33.148Z,94925.06
2018-11-28T07:53:02.701Z,94918.59
2018-11-28T07:55:32.194Z,94923.13
2018-11-28T07:58:01.656Z,94922.67
2018-11-28T08:00:31.205Z,94923.32
2018-11-28T08:03:00.469Z,94921.97
2018-11-28T08:05:29.942Z,94919.75
2018-11-28T08:07:59.275Z,94924.83
2018-11-28T08:10:28.663Z,94922.41
2018-11-28T08:12:58.702Z,94921.80
2018-11-28T08:15:28.076Z,94916.05
2018-11-28T08:17:57.571Z,94914.02
2018-11-28T08:20:26.833Z,94917.13
2018-11-28T08:22:56.222Z,94911.02
2018-11-28T08:25:27.900Z,94908.75
2018-11-28T08:27:55.195Z,94908.42
2018-11-28T08:30:26.410Z,94906.83
2018-11-28T08:32:56.648Z,94912.95
2018-11-28T08:35:25.925Z,94908.34
2018-11-28T08:37:55.265Z,94909.63
2018-11-28T08:40:26.323Z,94911.30
2018-11-28T08:42:56.521Z,94908.40
2018-11-28T08:45:25.846Z,94903.30
2018-11-28T08:47:58.594Z,94909.72
2018-11-28T08:50:31.508Z,94905.51
2018-11-28T08:53:00.763Z,94908.06
2018-11-28T08:55:30.363Z,94905.34
2018-11-28T08:57:59.607Z,94902.97
2018-11-28T09:00:29.246Z,94901.81
2018-11-28T09:02:59.302Z,94899.19
2018-11-28T09:05:28.721Z,94897.30
2018-11-28T09:07:57.994Z,94891.70
2018-11-28T09:10:27.363Z,94898.33
2018-11-28T09:12:56.730Z,94903.00
2018-11-28T09:15:26.995Z,94903.62
2018-11-28T09:17:56.610Z,94899.88
2018-11-28T09:20:26.037Z,94907.48
2018-11-28T09:22:55.089Z,94901.92
2018-11-28T09:25:24.109Z,94909.07
2018-11-28T09:27:55.344Z,94902.64
2018-11-28T09:30:24.530Z,94907.46
2018-11-28T09:32:53.636Z,94903.81
2018-11-28T09:35:22.705Z,94899.20
2018-11-28T09:37:51.789Z,94901.00
2018-11-28T09:40:23.832Z,94898.95
2018-11-28T09:42:54.074Z,94894.02
2018-11-28T09:45:23.180Z,94897.83
2018-11-28T09:47:52.261Z,94899.44
2018-11-28T09:50:22.228Z,94902.21
2018-11-28T09:52:52.035Z,94890.34
2018-11-28T09:55:22.487Z,94898.91
2018-11-28T09:57:51.598Z,94900.34
2018-11-28T10:00:25.529Z,94892.92
2018-11-28T10:02:56.312Z,94888.41
2018-11-28T10:05:27.369Z,94887.30
2018-11-28T10:07:56.486Z,94888.23
2018-11-28T10:10:25.596Z,94885.54
2018-11-28T10:12:54.692Z,94877.92
2018-11-28T10:15:25.510Z,94879.41
2018-11-28T10:17:54.745Z,94884.33
2018-11-28T10:20:23.989Z,94884.23
2018-11-28T10:22:53.601Z,94878.97
2018-11-28T10:25:23.822Z,94882.30
2018-11-28T10:27:56.039Z,94876.48
2018-11-28T10:30:26.308Z,94882.47
2018-11-28T10:32:55.730Z,94881.77
2018-11-28T10:35:24.879Z,94878.33
2018-11-28T10:37:53.897Z,94879.45
2018-11-28T10:40:25.380Z,94884.47
2018-11-28T10:42:55.678Z,94883.05
2018-11-28T10:45:26.108Z,94880.63
2018-11-28T10:47:56.290Z,94882.90
2018-11-28T10:50:25.486Z,94882.38
2018-11-28T10:52:54.913Z,94880.70
2018-11-28T10:55:26.342Z,94881.33
2018-11-28T10:57:55.904Z,94881.08
2018-11-28T11:00:37.398Z,94878.22
2018-11-28T11:03:12.790Z,94884.64
2018-11-28T11:05:48.080Z,94876.61
2018-11-28T11:08:22.700Z,94876.93
2018-11-28T11:11:30.870Z,94883.48
2018-11-28T11:14:05.101Z,94882.41
2018-11-28T11:16:34.092Z,94876.64
2018-11-28T11:19:03.574Z,94877.73
2018-11-28T11:21:33.004Z,94874.56
2018-11-28T11:24:03.709Z,94873.67
2018-11-28T11:26:33.265Z,94868.73
2018-11-28T11:29:02.637Z,94871.47
2018-11-28T11:31:32.488Z,94871.19
2018-11-28T11:34:01.867Z,94877.27
2018-11-28T11:36:31.212Z,94873.48
2018-11-28T11:39:00.645Z,94868.09
2018-11-28T11:41:30.220Z,94868.84
2018-11-28T11:44:00.060Z,94863.59
2018-11-28T11:46:29.412Z,94871.24
2018-11-28T11:48:58.871Z,94861.63
2018-11-28T11:51:28.874Z,94872.39
2018-11-28T11:53:58.284Z,94874.45
2018-11-28T11:56:28.485Z,94873.25
2018-11-28T11:58:57.759Z,94865.58
2018-11-28T12:01:27.184Z,94869.81
2018-11-28T12:03:56.676Z,94869.81
2018-11-28T12:06:26.307Z,94871.37
2018-11-28T12:08:55.942Z,94863.34
2018-11-28T12:11:25.426Z,94865.17
2018-11-28T12:13:54.987Z,94869.24
2018-11-28T12:16:24.392Z,94866.81
2018-11-28T12:18:54.164Z,94865.03
2018-11-28T12:21:24.332Z,94868.61
2018-11-28T12:23:53.643Z,94869.19
2018-11-28T12:26:23.030Z,94870.06
2018-11-28T12:28:53.052Z,94867.23
2018-11-28T12:31:22.489Z,94866.75
2018-11-28T12:33:52.003Z,94860.32
2018-11-28T12:36:21.474Z,94859.34
2018-11-28T12:38:50.916Z,94863.22
2018-11-28T12:41:20.003Z,94862.03
2018-11-28T12:43:49.337Z,94865.83
2018-11-28T12:46:19.731Z,94867.04
2018-11-28T12:48:48.855Z,94866.61
2018-11-28T12:51:18.130Z,94864.23
2018-11-28T12:53:47.144Z,94866.16
2018-11-28T12:56:17.475Z,94862.99
2018-11-28T12:58:46.530Z,94865.19
2018-11-28T13:01:15.752Z,94866.55
2018-11-28T13:03:45.746Z,94861.00
2018-11-28T13:06:14.896Z,94856.94
2018-11-28T13:08:43.920Z,94860.11
2018-11-28T13:11:13.047Z,94853.97
2018-11-28T13:13:42.121Z,94853.20
2018-11-28T13:16:11.270Z,94860.42
2018-11-28T13:18:40.337Z,94857.84
2018-11-28T13:21:09.447Z,94855.98
2018-11-28T13:23:38.510Z,94857.18
2018-11-28T13:26:07.579Z,94858.70
2018-11-28T13:28:36.681Z,94864.77
2018-11-28T13:31:05.865Z,94857.79
2018-11-28T13:33:34.952Z,94855.36
2018-11-28T13:36:04.186Z,94865.33
2018-11-28T13:38:33.328Z,94857.84
2018-11-28T13:41:02.352Z,94860.98
2018-11-28T13:43:31.774Z,94862.86
2018-11-28T13:46:00.815Z,94860.14
2018-11-28T13:48:29.915Z,94858.55
2018-11-28T13:51:01.656Z,94863.41
2018-11-28T13:53:31.790Z,94860.83
2018-11-28T13:58:31.085Z,94872.41
2018-11-28T14:01:00.599Z,94871.48
2018-11-28T14:03:30.392Z,94867.30
2018-11-28T14:05:59.472Z,94881.13
2018-11-28T14:08:29.020Z,94886.10
2018-11-28T14:10:58.329Z,94878.23
2018-11-28T14:13:28.764Z,94883.83
2018-11-28T14:15:58.802Z,94883.65
2018-11-28T14:18:28.239Z,94879.78
2018-11-28T14:20:57.888Z,94883.30
2018-11-28T14:23:28.319Z,94881.08
2018-11-28T14:25:59.214Z,94888.77
2018-11-28T14:28:28.671Z,94889.42
2018-11-28T14:30:58.033Z,94890.65
2018-11-28T14:33:28.770Z,94890.52
2018-11-28T14:35:58.752Z,94893.78
2018-11-28T14:38:28.340Z,94897.89
2018-11-28T14:40:58.369Z,94896.30
2018-11-28T14:43:27.928Z,94900.38
2018-11-28T14:45:59.979Z,94899.80
2018-11-28T14:48:30.318Z,94909.69
2018-11-28T14:51:00.307Z,94902.53
2018-11-28T14:53:29.804Z,94905.69
2018-11-28T14:55:59.816Z,94903.50
2018-11-28T14:58:29.312Z,94902.59
2018-11-28T15:00:58.778Z,94902.25
2018-11-28T15:03:28.171Z,94908.30
2018-11-28T15:06:07.782Z,94903.20
2018-11-28T15:08:37.253Z,94902.07
2018-11-28T15:11:08.577Z,94907.30
2018-11-28T15:13:38.403Z,94916.38
2018-11-28T15:16:08.164Z,94910.83
2018-11-28T15:18:38.183Z,94911.02
2018-11-28T15:21:08.577Z,94917.14
2018-11-28T15:23:38.227Z,94915.95
2018-11-28T15:26:07.988Z,94929.84
2018-11-28T15:28:40.521Z,94927.39
2018-11-28T15:31:09.471Z,94923.22
2018-11-28T15:33:39.037Z,94922.22
2018-11-28T15:36:08.762Z,94930.95
2018-11-28T15:38:38.337Z,94940.27
2018-11-28T15:41:08.416Z,94936.58
2018-11-28T15:43:38.032Z,94943.47
2018-11-28T15:46:08.694Z,94937.10
2018-11-28T15:48:38.233Z,94932.59
2018-11-28T15:51:08.157Z,94932.79
2018-11-28T15:53:37.588Z,94927.44
2018-11-28T15:56:07.255Z,94936.11
2018-11-28T15:58:38.185Z,94935.64
2018-11-28T16:01:08.111Z,94938.05
2018-11-28T16:03:37.488Z,94939.48
2018-11-28T16:06:07.496Z,94946.33
2018-11-28T16:08:37.383Z,94944.78
2018-11-28T16:11:14.190Z,94946.76
2018-11-28T16:13:43.708Z,94954.30
2018-11-28T16:16:13.563Z,94937.55
2018-11-28T16:18:43.628Z,94955.45
2018-11-28T16:21:13.673Z,94958.74
2018-11-28T16:23:43.598Z,94966.77
2018-11-28T16:26:13.098Z,94973.62
2018-11-28T16:28:42.764Z,94976.31
2018-11-28T16:31:13.470Z,94979.41
2018-11-28T16:33:44.467Z,94979.34
2018-11-28T16:36:15.582Z,94977.80
2018-11-28T16:38:46.997Z,94990.44
2018-11-28T16:41:17.295Z,94985.32
2018-11-28T16:43:46.797Z,94988.55
2018-11-28T16:46:16.183Z,94996.06
2018-11-28T16:48:48.195Z,94997.48
2018-11-28T16:51:18.081Z,94994.52
2018-11-28T16:53:47.836Z,94999.84
2018-11-28T16:56:17.267Z,95003.20
2018-11-28T16:58:47.100Z,95012.21
2018-11-28T17:01:16.359Z,95019.80
2018-11-28T17:03:45.790Z,95004.94
2018-11-28T17:06:16.376Z,95012.47
2018-11-28T17:08:46.094Z,95017.43
2018-11-28T17:11:15.496Z,95020.92
2018-11-28T17:13:45.317Z,95020.61
2018-11-28T17:16:15.013Z,95020.41
2018-11-28T17:18:44.758Z,95025.22
2018-11-28T17:21:15.167Z,95026.88
2018-11-28T17:23:44.720Z,95027.56
2018-11-28T17:26:14.289Z,95026.36
2018-11-28T17:28:43.702Z,95035.22
2018-11-28T17:31:13.477Z,95035.95
2018-11-28T17:33:43.155Z,95035.05
2018-11-28T17:36:13.860Z,95036.66
2018-11-28T17:38:43.250Z,95037.52
2018-11-28T17:41:12.916Z,95042.71
2018-11-28T17:43:42.506Z,95040.97
2018-11-28T17:46:12.759Z,95038.87
2018-11-28T17:48:44.692Z,95042.44
2018-11-28T17:51:14.320Z,95041.55
2018-11-28T17:53:43.811Z,95043.03
2018-11-28T17:56:13.771Z,95043.09
2018-11-28T17:58:43.337Z,95038.59
2018-11-28T18:01:12.670Z,95043.50
2018-11-28T18:03:43.217Z,95041.38
2018-11-28T18:06:12.702Z,95046.89
2018-11-28T18:08:42.170Z,95051.73
2018-11-28T18:11:13.642Z,95050.22
2018-11-28T18:13:43.477Z,95047.98
2018-11-28T18:16:13.274Z,95050.88
2018-11-28T18:18:43.459Z,95046.64
2018-11-28T18:21:13.236Z,95052.17
2018-11-28T18:23:43.033Z,95052.39
2018-11-28T18:26:15.572Z,95062.97
2018-11-28T18:28:45.365Z,95061.62
2018-11-28T18:31:15.094Z,95063.51
2018-11-28T18:33:45.457Z,95056.91
2018-11-28T18:36:15.015Z,95059.61
2018-11-28T18:38:44.579Z,95060.72
2018-11-28T18:41:14.275Z,95064.61
2018-11-28T18:43:43.819Z,95065.95
2018-11-28T18:46:13.801Z,95062.73
2018-11-28T18:48:43.439Z,95072.75
2018-11-28T18:51:12.889Z,95077.27
2018-11-28T18:53:42.729Z,95080.22
2018-11-28T18:56:12.276Z,95083.81
2018-11-28T18:58:41.915Z,95087.17
2018-11-28T19:01:11.282Z,95085.44
2018-11-28T19:03:40.677Z,95088.80
2018-11-28T19:06:10.152Z,95090.13
2018-11-28T19:08:40.702Z,95087.07
2018-11-28T19:11:10.198Z,95088.45
2018-11-28T19:13:40.069Z,95089.14
2018-11-28T19:16:10.745Z,95091.10
2018-11-28T19:18:40.048Z,95093.31
2018-11-28T19:21:10.091Z,95093.42
2018-11-28T19:23:39.743Z,95097.71
2018-11-28T19:26:09.988Z,95097.95
2018-11-28T19:28:39.424Z,95103.16
2018-11-28T19:31:08.984Z,95097.25
2018-11-28T19:33:39.626Z,95102.69
2018-11-28T19:36:09.173Z,95100.48
2018-11-28T19:38:40.544Z,95099.95
2018-11-28T19:41:17.390Z,95103.31
2018-11-28T19:43:49.853Z,95107.36
2018-11-28T19:46:20.838Z,95107.39
2018-11-28T19:48:50.633Z,95105.66
2018-11-28T19:51:23.757Z,95107.52
2018-11-28T19:53:53.552Z,95101.75
2018-11-28T19:56:23.087Z,95105.80
2018-11-28T19:58:53.327Z,95106.38
2018-11-28T20:01:23.503Z,95107.30
2018-11-28T20:06:27.070Z,95119.67
2018-11-28T20:11:27.448Z,95124.06
2018-11-28T20:14:01.805Z,95123.94
2018-11-28T20:16:31.705Z,95126.61
2018-11-28T20:19:02.080Z,95127.16
2018-11-28T20:21:32.313Z,95103.13
2018-11-28T20:24:03.471Z,95126.25
2018-11-28T20:26:33.642Z,95127.52
2018-11-28T20:29:03.935Z,95123.70
2018-11-28T20:31:35.270Z,95121.27
2018-11-28T20:34:05.055Z,95117.23
2018-11-28T20:36:34.736Z,95127.89
2018-11-28T20:39:05.012Z,95120.26
2018-11-28T20:41:37.808Z,95124.42
2018-11-28T20:44:08.579Z,95121.98
2018-11-28T20:46:38.094Z,95125.89
2018-11-28T20:49:08.088Z,95124.61
2018-11-28T20:51:39.316Z,95127.59
2018-11-28T20:54:09.026Z,95122.86
2018-11-28T20:56:38.735Z,95120.44
2018-11-28T20:59:08.875Z,95120.19
2018-11-28T21:01:38.554Z,95114.97
2018-11-28T21:04:09.065Z,95115.99
2018-11-28T21:06:38.953Z,95123.37
2018-11-28T21:09:10.876Z,95122.78
2018-11-28T21:11:40.692Z,95120.97
2018-11-28T21:14:10.500Z,95119.02
2018-11-28T21:16:40.090Z,95117.05
2018-11-28T21:19:10.665Z,95126.05
2018-11-28T21:21:40.466Z,95126.27
2018-11-28T21:24:10.669Z,95127.84
2018-11-28T21:26:40.782Z,95121.75
2018-11-28T21:29:10.807Z,95123.16
2018-11-28T21:31:41.439Z,95124.19
2018-11-28T21:34:10.827Z,95122.63
2018-11-28T21:36:41.234Z,95122.73
2018-11-28T21:39:10.759Z,95129.27
2018-11-28T21:41:40.222Z,95123.37
2018-11-28T21:44:09.902Z,95123.30
2018-11-28T21:46:39.814Z,95127.70
2018-11-28T21:49:09.514Z,95122.19
2018-11-28T21:51:39.300Z,95123.00
2018-11-28T21:54:08.657Z,95122.37
2018-11-28T21:56:38.206Z,95133.14
2018-11-28T21:59:08.248Z,95130.25
2018-11-28T22:01:37.848Z,95131.83
2018-11-28T22:04:07.269Z,95128.13
2018-11-28T22:06:36.615Z,95123.97
2018-11-28T22:09:09.632Z,95126.65
2018-11-28T22:11:39.216Z,95128.02
2018-11-28T22:14:08.625Z,95133.03
2018-11-28T22:16:37.970Z,95130.18
2018-11-28T22:19:07.828Z,95133.88
2018-11-28T22:21:37.700Z,95134.30
2018-11-28T22:24:07.308Z,95134.30
2018-11-28T22:26:36.756Z,95128.13
2018-11-28T22:29:06.275Z,95134.39
2018-11-28T22:31:35.815Z,95137.19
2018-11-28T22:34:05.537Z,95144.55
2018-11-28T22:36:35.896Z,95140.82
2018-11-28T22:39:07.039Z,95140.82
2018-11-28T22:41:36.681Z,95142.36
2018-11-28T22:44:06.605Z,95141.39
2018-11-28T22:46:36.202Z,95141.91
2018-11-28T22:49:05.603Z,95140.63
2018-11-28T22:51:35.095Z,95133.02
2018-11-28T22:54:04.454Z,95128.86
2018-11-28T22:56:33.872Z,95129.61
2018-11-28T22:59:03.392Z,95125.09
2018-11-28T23:03:41.128Z,95130.59
2018-11-28T23:06:10.772Z,95126.73
2018-11-28T23:08:40.266Z,95130.54
2018-11-28T23:11:09.690Z,95134.86
2018-11-28T23:13:39.053Z,95135.47
2018-11-28T23:16:08.501Z,95128.70
2018-11-28T23:18:39.223Z,95136.82
2018-11-28T23:21:08.523Z,95133.98
2018-11-28T23:23:38.153Z,95135.36
2018-11-28T23:26:07.736Z,95127.50
2018-11-28T23:28:38.370Z,95124.70
2018-11-28T23:31:07.969Z,95115.37
2018-11-28T23:33:37.632Z,95120.80
2018-11-28T23:36:07.952Z,95116.59
2018-11-28T23:38:37.417Z,95120.37
2018-11-28T23:41:07.326Z,95119.05
2018-11-28T23:43:37.809Z,95114.30
2018-11-28T23:46:07.487Z,95108.69
2018-11-28T23:48:36.862Z,95104.97
2018-11-28T23:51:07.493Z,95113.44
2018-11-28T23:53:37.072Z,95115.83
2018-11-28T23:56:06.937Z,95116.62
2018-11-28T23:58:37.442Z,95112.00
